Sunday, April 22, 2018, 5:53 PM EDT
Back to Local

KASH, Nashua, Boire Field Airport

Location: Nashua, NH, United States Lat: 42.782
Local Time: 5:53 PM EDT (21:53 GMT) Lon: -71.515
Time Zone: US/Eastern Elev: 200 ft

Show me the last for .
Show Decoded

2018-04-22 16:56 METAR KASH 222056Z 32009G14KT 10SM CLR 16/M11 A3030 RMK AO2 SLP271 T01611106
                 56009 =
2018-04-22 15:56 METAR KASH 221956Z 35011G16KT 10SM CLR 16/M11 A3030 RMK AO2 WSHFT 1924 SLP271
                 T01611106 =
2018-04-22 14:56 METAR KASH 221856Z COR 33012G22KT 10SM CLR 16/M11 A3031 RMK AO2 SLP274 T01561106
                 =
2018-04-22 13:56 METAR KASH 221756Z 31014G19KT 10SM CLR 15/M11 A3032 RMK AO2 SLP280 T01501106
                 10150 20056 56010 =
2018-04-22 12:56 METAR KASH 221656Z 29007G14KT 10SM CLR 14/M10 A3033 RMK AO2 SLP283 T01391100 =
2018-04-22 11:56 METAR KASH 221556Z 30013G18KT 10SM CLR 13/M09 A3034 RMK AO2 SLP285 T01331094 =
2018-04-22 10:56 METAR KASH 221456Z 32011G17KT 10SM CLR 12/M08 A3035 RMK AO2 SLP290 T01171083
                 58003 =
2018-04-22 09:56 METAR KASH 221356Z 33008G15KT 270V340 10SM CLR 11/M08 A3036 RMK AO2 SLP292
                 T01061078 =
2018-04-22 08:56 METAR KASH 221256Z 33009KT 10SM CLR 09/M07 A3036 RMK AO2 SLP294 T00941072 =
2018-04-22 07:56 METAR KASH 221156Z 31007KT 10SM CLR 06/M05 A3036 RMK AO2 SLP293 T00561050 10056
                 21017 51011 =
2018-04-22 06:56 METAR KASH 221056Z 00000KT 10SM CLR M01/M03 A3036 RMK AO2 SLP293 T10061028 =
2018-04-22 05:56 METAR KASH 220956Z AUTO 00000KT 10SM CLR M02/M04 A3034 RMK AO2 SLP285 T10171044
                 =
2018-04-22 04:56 METAR KASH 220856Z AUTO 00000KT 10SM CLR M01/M04 A3033 RMK AO2 SLP283 T10111039
                 53002 =
2018-04-22 03:56 METAR KASH 220756Z AUTO 00000KT 10SM CLR M01/M03 A3033 RMK AO2 SLP282 T10061033
                 =
2018-04-22 02:56 METAR KASH 220656Z AUTO 28003KT 10SM CLR 01/M04 A3032 RMK AO2 SLP280 T00111044 =
2018-04-22 01:56 METAR KASH 220556Z AUTO 31005KT 10SM CLR 01/M03 A3032 RMK AO2 SLP280 T00061033
                 10117 20000 50005 =
2018-04-22 00:56 METAR KASH 220456Z AUTO 31005KT 10SM CLR 03/M04 A3032 RMK AO2 SLP281 T00281044 =
2018-04-21 23:56 METAR KASH 220356Z AUTO 29003KT 10SM CLR 04/M04 A3032 RMK AO2 SLP279 T00391039
                 401501006 =
2018-04-21 22:56 METAR KASH 220256Z AUTO 30004KT 10SM CLR 04/M03 A3031 RMK AO2 SLP274 T00441033
                 51020 =
2018-04-21 21:56 METAR KASH 220156Z AUTO 30003KT 10SM CLR 07/M04 A3029 RMK AO2 SLP269 T00671044 =
2018-04-21 20:56 METAR KASH 220056Z 31005KT 10SM CLR 11/M07 A3027 RMK AO2 SLP263 T01061067 =
2018-04-21 19:56 METAR KASH 212356Z 33006KT 10SM FEW060 12/M07 A3025 RMK AO2 SLP254 T01171072
                 10150 20117 53018 =
2018-04-21 18:56 METAR KASH 212256Z 33011G15KT 10SM FEW060 13/M08 A3021 RMK AO2 SLP242 T01331083
                 =
2018-04-21 17:56 METAR KASH 212156Z 34010G19KT 10SM SCT060 14/M08 A3020 RMK AO2 SLP238 T01391083
                 =

Support USWX by starting your Amazon purchase here.